createdAt,value
2023-10-23T00:03:55.995Z,81.26
2023-10-23T00:08:58.288Z,80.66
2023-10-23T00:14:00.576Z,80.98
2023-10-23T00:19:02.081Z,81.25
2023-10-23T00:24:03.885Z,82.03
2023-10-23T00:29:05.314Z,81.71
2023-10-23T00:34:06.831Z,81.63
2023-10-23T00:39:08.948Z,81.43
2023-10-23T00:44:10.569Z,82.04
2023-10-23T00:49:12.520Z,81.91
2023-10-23T00:54:15.368Z,81.89
2023-10-23T00:59:17.362Z,81.93
2023-10-23T01:04:19.589Z,82.20
2023-10-23T01:09:21.442Z,81.88
2023-10-23T01:14:23.239Z,82.00
2023-10-23T01:19:24.726Z,81.45
2023-10-23T01:24:27.285Z,81.75
2023-10-23T01:29:28.773Z,81.56
2023-10-23T01:34:30.745Z,81.85
2023-10-23T01:39:32.341Z,81.67
2023-10-23T01:44:33.768Z,81.42
2023-10-23T01:49:35.507Z,81.49
2023-10-23T01:54:38.281Z,82.08
2023-10-23T01:59:40.757Z,81.86
2023-10-23T02:04:42.381Z,82.02
2023-10-23T02:09:43.926Z,82.29
2023-10-23T02:14:45.494Z,81.99
2023-10-23T02:19:49.430Z,81.95
2023-10-23T02:24:50.968Z,81.84
2023-10-23T02:29:52.456Z,81.18
2023-10-23T02:34:54.846Z,80.87
2023-10-23T02:39:58.137Z,81.57
2023-10-23T02:45:00.258Z,80.76
2023-10-23T02:50:01.932Z,81.60
2023-10-23T02:55:04.350Z,80.86
2023-10-23T03:00:06.985Z,81.43
2023-10-23T03:05:08.758Z,80.61
2023-10-23T03:10:10.799Z,80.94
2023-10-23T03:15:15.158Z,80.45
2023-10-23T03:20:17.155Z,80.65
2023-10-23T03:25:18.842Z,80.98
2023-10-23T03:30:20.580Z,80.46
2023-10-23T03:35:21.942Z,80.36
2023-10-23T03:40:23.365Z,80.33
2023-10-23T03:45:25.008Z,80.51
2023-10-23T03:50:26.395Z,80.63
2023-10-23T03:55:28.328Z,81.24
2023-10-23T04:00:31.833Z,81.76
2023-10-23T04:05:33.601Z,81.34
2023-10-23T04:10:34.977Z,81.31
2023-10-23T04:15:36.471Z,81.42
2023-10-23T04:20:37.805Z,80.75
2023-10-23T04:25:39.314Z,80.43
2023-10-23T04:30:40.942Z,81.06
2023-10-23T04:35:42.557Z,80.81
2023-10-23T04:40:45.750Z,81.01
2023-10-23T04:45:47.667Z,81.25
2023-10-23T04:50:49.128Z,80.49
2023-10-23T04:55:50.500Z,80.97
2023-10-23T05:00:53.411Z,80.53
2023-10-23T05:05:55.646Z,80.24
2023-10-23T05:11:06.438Z,81.63
2023-10-23T05:16:08.378Z,81.81
2023-10-23T05:21:13.805Z,82.04
2023-10-23T05:26:16.246Z,82.17
2023-10-23T05:31:17.939Z,81.99
2023-10-23T05:36:19.399Z,81.79
2023-10-23T05:41:21.194Z,81.88
2023-10-23T05:46:23.943Z,82.04
2023-10-23T05:51:25.716Z,81.58
2023-10-23T05:56:27.514Z,80.89
2023-10-23T06:01:29.221Z,81.80
2023-10-23T06:06:31.482Z,81.50
2023-10-23T06:11:33.473Z,82.62
2023-10-23T06:16:34.866Z,83.47
2023-10-23T06:21:36.336Z,82.95
2023-10-23T06:26:37.833Z,82.91
2023-10-23T06:31:41.339Z,82.66
2023-10-23T06:36:44.124Z,83.12
2023-10-23T06:41:46.075Z,83.53
2023-10-23T06:46:47.952Z,82.71
2023-10-23T06:51:49.415Z,83.34
2023-10-23T06:56:52.208Z,83.45
2023-10-23T07:01:54.072Z,83.81
2023-10-23T07:06:56.584Z,83.64
2023-10-23T07:11:58.337Z,82.97
2023-10-23T07:17:00.115Z,83.41
2023-10-23T07:22:01.616Z,83.11
2023-10-23T07:27:03.087Z,83.08
2023-10-23T07:32:05.339Z,82.64
2023-10-23T07:37:07.009Z,82.40
2023-10-23T07:42:08.661Z,81.39
2023-10-23T07:47:10.249Z,81.42
2023-10-23T07:52:13.179Z,81.76
2023-10-23T07:57:14.572Z,82.05
2023-10-23T08:02:16.000Z,80.93
2023-10-23T08:07:17.925Z,81.65
2023-10-23T08:12:19.458Z,80.49
2023-10-23T08:17:39.350Z,79.55
2023-10-23T08:22:43.588Z,79.54
2023-10-23T08:27:45.018Z,80.60
2023-10-23T08:32:52.978Z,80.56
2023-10-23T08:37:56.760Z,79.47
2023-10-23T08:42:58.577Z,79.02
2023-10-23T08:48:00.262Z,78.38
2023-10-23T08:53:08.569Z,79.36
2023-10-23T08:58:14.790Z,76.28
2023-10-23T09:03:17.282Z,76.93
2023-10-23T09:08:45.920Z,76.52
2023-10-23T09:13:47.520Z,77.13
2023-10-23T09:18:53.476Z,76.00
2023-10-23T09:23:57.336Z,76.80
2023-10-23T09:28:59.791Z,74.66
2023-10-23T09:34:01.470Z,73.31
2023-10-23T09:39:03.954Z,74.88
2023-10-23T09:44:08.813Z,75.20
2023-10-23T09:49:11.381Z,75.14
2023-10-23T09:54:18.451Z,74.37
2023-10-23T09:59:31.266Z,74.85
2023-10-23T10:05:00.725Z,75.34
2023-10-23T10:10:03.486Z,75.32
2023-10-23T10:15:12.435Z,75.34
2023-10-23T10:20:14.150Z,75.48
2023-10-23T10:25:18.208Z,75.47
2023-10-23T10:30:49.050Z,75.68
2023-10-23T10:36:00.487Z,76.86
2023-10-23T10:41:19.276Z,76.92
2023-10-23T10:46:30.501Z,76.91
2023-10-23T10:51:33.132Z,76.97
2023-10-23T10:56:35.127Z,77.21
2023-10-23T11:01:36.717Z,77.15
2023-10-23T11:06:38.526Z,77.71
2023-10-23T11:11:41.677Z,77.38
2023-10-23T11:16:43.301Z,77.30
2023-10-23T11:21:45.319Z,77.46
2023-10-23T11:26:47.978Z,77.16
2023-10-23T11:31:51.069Z,75.92
2023-10-23T11:36:52.964Z,76.81
2023-10-23T11:41:55.869Z,76.03
2023-10-23T11:47:01.289Z,74.08
2023-10-23T11:52:04.683Z,74.36
2023-10-23T11:57:07.065Z,75.21
2023-10-23T12:02:08.539Z,74.93
2023-10-23T12:07:10.207Z,74.08
2023-10-23T12:12:12.924Z,72.41
2023-10-23T12:17:14.904Z,72.13
2023-10-23T12:22:16.735Z,71.21
2023-10-23T12:27:18.126Z,70.24
2023-10-23T12:33:18.930Z,70.17
2023-10-23T12:37:41.509Z,68.82
2023-10-23T12:42:44.547Z,68.61
2023-10-23T12:47:46.490Z,70.02
2023-10-23T12:52:49.552Z,70.07
2023-10-23T12:57:53.828Z,70.79
2023-10-23T13:02:55.390Z,70.95
2023-10-23T13:07:57.987Z,71.29
2023-10-23T13:12:59.553Z,71.04
2023-10-23T13:18:02.912Z,71.43
2023-10-23T13:23:04.973Z,71.45
2023-10-23T13:28:06.487Z,71.39
2023-10-23T13:33:07.999Z,71.55
2023-10-23T13:38:09.768Z,72.34
2023-10-23T13:43:12.330Z,72.55
2023-10-23T13:48:15.112Z,72.88
2023-10-23T13:53:21.581Z,72.92
2023-10-23T13:58:24.255Z,72.90
2023-10-23T14:03:29.047Z,72.14
2023-10-23T14:08:35.188Z,72.21
2023-10-23T14:13:52.910Z,71.11
2023-10-23T14:18:54.727Z,71.61
2023-10-23T14:23:56.380Z,72.66
2023-10-23T14:28:58.074Z,72.24
2023-10-23T14:33:59.553Z,71.80
2023-10-23T14:39:00.933Z,71.82
2023-10-23T14:44:03.060Z,70.44
2023-10-23T14:49:04.814Z,70.93
2023-10-23T14:54:06.579Z,70.33
2023-10-23T14:59:08.089Z,71.34
2023-10-23T15:04:10.644Z,71.48
2023-10-23T15:09:12.429Z,71.14
2023-10-23T15:14:13.943Z,72.05
2023-10-23T15:19:15.778Z,71.82
2023-10-23T15:24:18.172Z,72.13
2023-10-23T15:29:19.928Z,73.08
2023-10-23T15:34:22.187Z,72.84
2023-10-23T15:39:23.823Z,73.64
2023-10-23T15:44:31.940Z,76.86
2023-10-23T15:49:33.608Z,76.98
2023-10-23T15:54:35.307Z,76.14
2023-10-23T15:59:36.894Z,77.04
2023-10-23T16:04:38.939Z,77.83
2023-10-23T16:09:40.938Z,79.60
2023-10-23T16:14:55.846Z,81.21
2023-10-23T16:19:58.585Z,81.76
2023-10-23T16:25:00.262Z,81.47
2023-10-23T16:30:03.321Z,81.77
2023-10-23T16:35:05.294Z,82.09
2023-10-23T16:40:07.451Z,82.19
2023-10-23T16:45:09.304Z,81.95
2023-10-23T16:50:11.318Z,80.52
2023-10-23T16:55:13.040Z,80.89
2023-10-23T17:00:16.958Z,80.56
2023-10-23T17:05:18.438Z,81.00
2023-10-23T17:10:20.484Z,82.13
2023-10-23T17:15:22.934Z,81.00
2023-10-23T17:20:25.594Z,80.14
2023-10-23T17:25:27.295Z,80.10
2023-10-23T17:30:28.965Z,80.26
2023-10-23T17:35:30.582Z,81.75
2023-10-23T17:40:38.096Z,83.73
2023-10-23T17:45:39.796Z,85.22
2023-10-23T17:50:41.737Z,85.26
2023-10-23T17:55:43.221Z,84.90
2023-10-23T18:00:44.653Z,84.73
2023-10-23T18:05:47.238Z,86.43
2023-10-23T18:10:48.592Z,86.35
2023-10-23T18:15:50.034Z,86.21
2023-10-23T18:20:55.994Z,87.05
2023-10-23T18:26:03.269Z,87.70
2023-10-23T18:31:05.190Z,87.40
2023-10-23T18:36:14.234Z,89.42
2023-10-23T18:41:20.075Z,90.04
2023-10-23T18:46:22.575Z,90.65
2023-10-23T18:51:25.086Z,90.29
2023-10-23T18:56:26.723Z,90.79
2023-10-23T19:01:29.233Z,91.03
2023-10-23T19:06:31.826Z,91.13
2023-10-23T19:11:33.303Z,91.74
2023-10-23T19:16:34.713Z,91.53
2023-10-23T19:21:36.264Z,91.05
2023-10-23T19:26:37.738Z,91.45
2023-10-23T19:31:39.528Z,91.59
2023-10-23T19:36:41.259Z,92.18
2023-10-23T19:41:49.725Z,92.71
2023-10-23T19:46:51.592Z,92.52
2023-10-23T19:51:54.838Z,92.79
2023-10-23T19:56:57.402Z,92.91
2023-10-23T20:02:02.296Z,93.37
2023-10-23T20:07:04.145Z,93.02
2023-10-23T20:12:06.075Z,92.87
2023-10-23T20:17:07.818Z,92.43
2023-10-23T20:22:09.354Z,92.81
2023-10-23T20:27:10.737Z,92.85
2023-10-23T20:32:13.025Z,92.62
2023-10-23T20:37:14.428Z,92.88
2023-10-23T20:42:16.054Z,92.99
2023-10-23T20:47:17.404Z,93.45
2023-10-23T20:52:18.739Z,93.37
2023-10-23T20:57:20.312Z,93.61
2023-10-23T21:02:21.719Z,93.82
2023-10-23T21:07:23.255Z,93.78
2023-10-23T21:12:24.728Z,93.19
2023-10-23T21:17:26.098Z,93.17
2023-10-23T21:22:27.819Z,92.91
2023-10-23T21:27:29.259Z,93.88
2023-10-23T21:32:30.691Z,92.86
2023-10-23T21:37:32.062Z,93.16
2023-10-23T21:42:33.427Z,92.60
2023-10-23T21:47:38.281Z,92.58
2023-10-23T21:52:40.166Z,92.00
2023-10-23T21:57:42.262Z,91.69
2023-10-23T22:02:47.125Z,91.42
2023-10-23T22:07:49.783Z,91.40
2023-10-23T22:12:54.699Z,91.62
2023-10-23T22:17:56.283Z,91.62
2023-10-23T22:22:57.693Z,91.16
2023-10-23T22:27:59.170Z,91.12
2023-10-23T22:38:09.769Z,91.55
2023-10-23T22:43:14.573Z,90.76
2023-10-23T22:48:15.927Z,91.79
2023-10-23T22:53:17.634Z,92.07
2023-10-23T22:58:20.736Z,92.49
2023-10-23T23:03:22.465Z,92.28
2023-10-23T23:08:27.424Z,92.12
2023-10-23T23:13:29.059Z,91.92
2023-10-23T23:18:31.503Z,92.54
2023-10-23T23:23:48.482Z,92.63
2023-10-23T23:28:49.810Z,91.26
2023-10-23T23:33:51.271Z,91.85
2023-10-23T23:38:53.405Z,92.11
2023-10-23T23:43:54.766Z,90.64
2023-10-23T23:48:56.276Z,91.44
2023-10-23T23:53:57.669Z,91.60
2023-10-23T23:58:59.090Z,91.44
